Terminal Aerodrome Forecast
Issued by NWS

Home | Current Version | Previous Version | Text Only | Print | Product List | Glossary On
Versions: 1 2 3 4 5 6 7 8 9 10 11 12 13 14 15 16
000
FTUS43 KMPX 011100
TAFRWF
TAF
KRWF 011120Z 0112/0212 17013KT P6SM FEW200
     FM011700 17022G29KT P6SM BKN200
     FM020000 15017KT P6SM SKC=

USA.gov is the U.S. government's official web portal to all federal, state and local government web resources and services.